sensor_id;sensor_type;location;lat;lon;timestamp;P1;durP1;ratioP1;P2;durP2;ratioP2
4057;SDS011;2044;48.692;9.020;2023-06-10T00:00:06;15.60;;;14.40;;
4057;SDS011;2044;48.692;9.020;2023-06-10T00:02:37;14.73;;;13.60;;
4057;SDS011;2044;48.692;9.020;2023-06-10T00:05:05;15.00;;;13.70;;
4057;SDS011;2044;48.692;9.020;2023-06-10T00:07:34;14.20;;;13.20;;
4057;SDS011;2044;48.692;9.020;2023-06-10T00:10:03;14.93;;;13.83;;
4057;SDS011;2044;48.692;9.020;2023-06-10T00:12:30;14.50;;;13.20;;
4057;SDS011;2044;48.692;9.020;2023-06-10T00:15:02;15.13;;;13.63;;
4057;SDS011;2044;48.692;9.020;2023-06-10T00:17:29;14.17;;;12.90;;
4057;SDS011;2044;48.692;9.020;2023-06-10T00:19:57;13.33;;;12.30;;
4057;SDS011;2044;48.692;9.020;2023-06-10T00:22:25;12.80;;;11.80;;
4057;SDS011;2044;48.692;9.020;2023-06-10T00:24:54;12.87;;;11.87;;
4057;SDS011;2044;48.692;9.020;2023-06-10T00:27:21;12.73;;;11.70;;
4057;SDS011;2044;48.692;9.020;2023-06-10T00:29:48;13.27;;;11.97;;
4057;SDS011;2044;48.692;9.020;2023-06-10T00:32:15;12.77;;;11.67;;
4057;SDS011;2044;48.692;9.020;2023-06-10T00:34:41;12.27;;;11.27;;
4057;SDS011;2044;48.692;9.020;2023-06-10T00:37:08;12.10;;;10.90;;
4057;SDS011;2044;48.692;9.020;2023-06-10T00:39:36;13.43;;;11.30;;
4057;SDS011;2044;48.692;9.020;2023-06-10T00:42:03;13.50;;;10.80;;
4057;SDS011;2044;48.692;9.020;2023-06-10T00:44:32;10.93;;;9.93;;
4057;SDS011;2044;48.692;9.020;2023-06-10T00:46:58;11.87;;;10.53;;
4057;SDS011;2044;48.692;9.020;2023-06-10T00:49:25;12.33;;;11.03;;
4057;SDS011;2044;48.692;9.020;2023-06-10T00:51:52;11.90;;;10.70;;
4057;SDS011;2044;48.692;9.020;2023-06-10T00:54:19;10.97;;;9.87;;
4057;SDS011;2044;48.692;9.020;2023-06-10T00:56:48;10.67;;;9.57;;
4057;SDS011;2044;48.692;9.020;2023-06-10T00:59:15;10.23;;;9.30;;
4057;SDS011;2044;48.692;9.020;2023-06-10T01:01:42;10.20;;;9.20;;
4057;SDS011;2044;48.692;9.020;2023-06-10T01:04:12;12.40;;;8.60;;
4057;SDS011;2044;48.692;9.020;2023-06-10T01:06:41;11.47;;;9.77;;
4057;SDS011;2044;48.692;9.020;2023-06-10T01:09:18;10.07;;;8.80;;
4057;SDS011;2044;48.692;9.020;2023-06-10T01:11:52;15.33;;;10.20;;
4057;SDS011;2044;48.692;9.020;2023-06-10T01:14:22;9.83;;;8.70;;
4057;SDS011;2044;48.692;9.020;2023-06-10T01:16:49;10.60;;;8.50;;
4057;SDS011;2044;48.692;9.020;2023-06-10T01:19:20;9.90;;;8.63;;
4057;SDS011;2044;48.692;9.020;2023-06-10T01:21:50;9.07;;;8.03;;
4057;SDS011;2044;48.692;9.020;2023-06-10T01:24:20;9.00;;;8.17;;
4057;SDS011;2044;48.692;9.020;2023-06-10T01:26:47;9.50;;;8.50;;
4057;SDS011;2044;48.692;9.020;2023-06-10T01:29:17;9.60;;;8.60;;
4057;SDS011;2044;48.692;9.020;2023-06-10T01:31:47;11.37;;;9.77;;
4057;SDS011;2044;48.692;9.020;2023-06-10T01:34:18;12.53;;;11.03;;
4057;SDS011;2044;48.692;9.020;2023-06-10T01:36:45;11.13;;;9.93;;
4057;SDS011;2044;48.692;9.020;2023-06-10T01:39:15;15.93;;;10.50;;
4057;SDS011;2044;48.692;9.020;2023-06-10T01:41:46;11.17;;;9.97;;
4057;SDS011;2044;48.692;9.020;2023-06-10T01:44:17;12.20;;;10.63;;
4057;SDS011;2044;48.692;9.020;2023-06-10T01:46:44;14.20;;;10.60;;
4057;SDS011;2044;48.692;9.020;2023-06-10T01:49:11;12.17;;;9.37;;
4057;SDS011;2044;48.692;9.020;2023-06-10T01:51:38;13.70;;;10.30;;
4057;SDS011;2044;48.692;9.020;2023-06-10T01:54:05;11.47;;;10.20;;
4057;SDS011;2044;48.692;9.020;2023-06-10T01:56:33;16.07;;;10.53;;
4057;SDS011;2044;48.692;9.020;2023-06-10T01:59:00;13.30;;;10.20;;
4057;SDS011;2044;48.692;9.020;2023-06-10T02:01:27;12.03;;;10.07;;
4057;SDS011;2044;48.692;9.020;2023-06-10T02:03:54;14.30;;;10.07;;
4057;SDS011;2044;48.692;9.020;2023-06-10T02:06:21;12.63;;;9.93;;
4057;SDS011;2044;48.692;9.020;2023-06-10T02:08:47;13.40;;;9.60;;
4057;SDS011;2044;48.692;9.020;2023-06-10T02:11:14;13.10;;;10.30;;
4057;SDS011;2044;48.692;9.020;2023-06-10T02:13:42;13.07;;;10.27;;
4057;SDS011;2044;48.692;9.020;2023-06-10T02:16:09;12.93;;;10.60;;
4057;SDS011;2044;48.692;9.020;2023-06-10T02:18:37;13.80;;;10.67;;
4057;SDS011;2044;48.692;9.020;2023-06-10T02:21:05;13.03;;;10.17;;
4057;SDS011;2044;48.692;9.020;2023-06-10T02:23:32;11.30;;;9.43;;
4057;SDS011;2044;48.692;9.020;2023-06-10T02:25:59;11.60;;;10.00;;
4057;SDS011;2044;48.692;9.020;2023-06-10T02:28:25;12.43;;;10.30;;
4057;SDS011;2044;48.692;9.020;2023-06-10T02:30:53;13.47;;;10.37;;
4057;SDS011;2044;48.692;9.020;2023-06-10T02:33:22;12.80;;;9.83;;
4057;SDS011;2044;48.692;9.020;2023-06-10T02:35:49;15.53;;;10.40;;
4057;SDS011;2044;48.692;9.020;2023-06-10T02:38:15;12.47;;;10.23;;
4057;SDS011;2044;48.692;9.020;2023-06-10T02:40:43;12.73;;;10.37;;
4057;SDS011;2044;48.692;9.020;2023-06-10T02:43:09;15.30;;;10.53;;
4057;SDS011;2044;48.692;9.020;2023-06-10T02:45:36;14.27;;;10.23;;
4057;SDS011;2044;48.692;9.020;2023-06-10T02:48:04;15.57;;;10.50;;
4057;SDS011;2044;48.692;9.020;2023-06-10T02:50:31;12.50;;;10.80;;
4057;SDS011;2044;48.692;9.020;2023-06-10T02:52:58;16.50;;;11.07;;
4057;SDS011;2044;48.692;9.020;2023-06-10T02:55:25;13.87;;;10.60;;
4057;SDS011;2044;48.692;9.020;2023-06-10T02:57:52;12.33;;;9.73;;
4057;SDS011;2044;48.692;9.020;2023-06-10T03:00:20;15.00;;;11.37;;
4057;SDS011;2044;48.692;9.020;2023-06-10T03:02:47;14.10;;;10.23;;
4057;SDS011;2044;48.692;9.020;2023-06-10T03:05:15;13.03;;;9.73;;
4057;SDS011;2044;48.692;9.020;2023-06-10T03:07:42;13.40;;;10.03;;
4057;SDS011;2044;48.692;9.020;2023-06-10T03:10:09;15.23;;;10.00;;
4057;SDS011;2044;48.692;9.020;2023-06-10T03:12:36;13.23;;;10.80;;
4057;SDS011;2044;48.692;9.020;2023-06-10T03:15:03;17.10;;;11.40;;
4057;SDS011;2044;48.692;9.020;2023-06-10T03:17:30;13.80;;;10.47;;
4057;SDS011;2044;48.692;9.020;2023-06-10T03:19:57;14.33;;;10.10;;
4057;SDS011;2044;48.692;9.020;2023-06-10T03:22:25;15.17;;;10.33;;
4057;SDS011;2044;48.692;9.020;2023-06-10T03:24:52;15.47;;;10.60;;
4057;SDS011;2044;48.692;9.020;2023-06-10T03:27:20;16.73;;;9.90;;
4057;SDS011;2044;48.692;9.020;2023-06-10T03:29:46;18.90;;;11.47;;
4057;SDS011;2044;48.692;9.020;2023-06-10T03:32:13;16.57;;;11.30;;
4057;SDS011;2044;48.692;9.020;2023-06-10T03:34:40;13.40;;;9.73;;
4057;SDS011;2044;48.692;9.020;2023-06-10T03:37:07;15.90;;;10.20;;
4057;SDS011;2044;48.692;9.020;2023-06-10T03:39:35;15.20;;;10.90;;
4057;SDS011;2044;48.692;9.020;2023-06-10T03:42:02;14.80;;;9.90;;
4057;SDS011;2044;48.692;9.020;2023-06-10T03:44:29;13.73;;;9.87;;
4057;SDS011;2044;48.692;9.020;2023-06-10T03:46:56;13.53;;;9.60;;
4057;SDS011;2044;48.692;9.020;2023-06-10T03:49:24;15.47;;;10.63;;
4057;SDS011;2044;48.692;9.020;2023-06-10T03:51:53;15.10;;;10.07;;
4057;SDS011;2044;48.692;9.020;2023-06-10T03:54:21;15.50;;;11.20;;
4057;SDS011;2044;48.692;9.020;2023-06-10T03:56:49;16.63;;;11.20;;
4057;SDS011;2044;48.692;9.020;2023-06-10T03:59:16;15.83;;;11.57;;
4057;SDS011;2044;48.692;9.020;2023-06-10T04:01:43;15.00;;;10.60;;
4057;SDS011;2044;48.692;9.020;2023-06-10T04:04:11;15.03;;;11.37;;
4057;SDS011;2044;48.692;9.020;2023-06-10T04:06:40;12.07;;;10.10;;
4057;SDS011;2044;48.692;9.020;2023-06-10T04:09:08;15.10;;;11.23;;
4057;SDS011;2044;48.692;9.020;2023-06-10T04:11:35;12.70;;;10.07;;
4057;SDS011;2044;48.692;9.020;2023-06-10T04:14:03;11.07;;;9.37;;
4057;SDS011;2044;48.692;9.020;2023-06-10T04:16:30;9.90;;;8.20;;
4057;SDS011;2044;48.692;9.020;2023-06-10T04:18:57;11.17;;;8.27;;
4057;SDS011;2044;48.692;9.020;2023-06-10T04:21:24;9.63;;;7.57;;
4057;SDS011;2044;48.692;9.020;2023-06-10T04:23:50;9.10;;;7.87;;
4057;SDS011;2044;48.692;9.020;2023-06-10T04:26:17;9.27;;;7.57;;
4057;SDS011;2044;48.692;9.020;2023-06-10T04:28:44;8.60;;;7.10;;
4057;SDS011;2044;48.692;9.020;2023-06-10T04:31:12;8.70;;;7.43;;
4057;SDS011;2044;48.692;9.020;2023-06-10T04:33:38;10.23;;;7.97;;
4057;SDS011;2044;48.692;9.020;2023-06-10T04:36:05;12.43;;;9.60;;
4057;SDS011;2044;48.692;9.020;2023-06-10T04:38:32;10.90;;;9.90;;
4057;SDS011;2044;48.692;9.020;2023-06-10T04:40:59;13.20;;;9.97;;
4057;SDS011;2044;48.692;9.020;2023-06-10T04:43:26;11.50;;;10.30;;
4057;SDS011;2044;48.692;9.020;2023-06-10T04:45:53;11.90;;;10.73;;
4057;SDS011;2044;48.692;9.020;2023-06-10T04:48:21;11.57;;;10.33;;
4057;SDS011;2044;48.692;9.020;2023-06-10T04:50:49;11.50;;;10.60;;
4057;SDS011;2044;48.692;9.020;2023-06-10T04:53:16;13.20;;;11.57;;
4057;SDS011;2044;48.692;9.020;2023-06-10T04:55:42;13.10;;;12.00;;
4057;SDS011;2044;48.692;9.020;2023-06-10T04:58:09;14.80;;;13.40;;
4057;SDS011;2044;48.692;9.020;2023-06-10T05:00:36;13.77;;;12.67;;
4057;SDS011;2044;48.692;9.020;2023-06-10T05:03:03;13.87;;;12.70;;
4057;SDS011;2044;48.692;9.020;2023-06-10T05:05:31;14.17;;;12.97;;
4057;SDS011;2044;48.692;9.020;2023-06-10T05:07:57;13.00;;;12.10;;
4057;SDS011;2044;48.692;9.020;2023-06-10T05:10:24;14.07;;;12.80;;
4057;SDS011;2044;48.692;9.020;2023-06-10T05:12:51;14.43;;;13.33;;
4057;SDS011;2044;48.692;9.020;2023-06-10T05:15:17;14.70;;;13.60;;
4057;SDS011;2044;48.692;9.020;2023-06-10T05:17:44;13.30;;;12.40;;
4057;SDS011;2044;48.692;9.020;2023-06-10T05:20:11;13.67;;;12.73;;
4057;SDS011;2044;48.692;9.020;2023-06-10T05:22:40;12.73;;;11.90;;
4057;SDS011;2044;48.692;9.020;2023-06-10T05:25:07;12.80;;;11.90;;
4057;SDS011;2044;48.692;9.020;2023-06-10T05:27:34;12.40;;;11.60;;
4057;SDS011;2044;48.692;9.020;2023-06-10T05:30:00;12.10;;;11.30;;
4057;SDS011;2044;48.692;9.020;2023-06-10T05:32:28;13.57;;;12.40;;
4057;SDS011;2044;48.692;9.020;2023-06-10T05:34:55;11.80;;;11.00;;
4057;SDS011;2044;48.692;9.020;2023-06-10T05:37:21;12.47;;;11.67;;
4057;SDS011;2044;48.692;9.020;2023-06-10T05:39:50;12.60;;;11.70;;
4057;SDS011;2044;48.692;9.020;2023-06-10T05:42:16;12.37;;;11.47;;
4057;SDS011;2044;48.692;9.020;2023-06-10T05:44:43;12.37;;;11.37;;
4057;SDS011;2044;48.692;9.020;2023-06-10T05:47:10;11.90;;;11.20;;
4057;SDS011;2044;48.692;9.020;2023-06-10T05:49:37;12.13;;;11.27;;
4057;SDS011;2044;48.692;9.020;2023-06-10T05:52:03;12.10;;;11.30;;
4057;SDS011;2044;48.692;9.020;2023-06-10T05:54:31;12.90;;;11.90;;
4057;SDS011;2044;48.692;9.020;2023-06-10T05:56:59;11.80;;;11.10;;
4057;SDS011;2044;48.692;9.020;2023-06-10T05:59:25;12.57;;;11.77;;
4057;SDS011;2044;48.692;9.020;2023-06-10T06:01:52;12.00;;;11.20;;
4057;SDS011;2044;48.692;9.020;2023-06-10T06:04:19;12.30;;;11.47;;
4057;SDS011;2044;48.692;9.020;2023-06-10T06:06:46;12.37;;;11.30;;
4057;SDS011;2044;48.692;9.020;2023-06-10T06:09:12;12.03;;;11.23;;
4057;SDS011;2044;48.692;9.020;2023-06-10T06:11:39;11.30;;;10.60;;
4057;SDS011;2044;48.692;9.020;2023-06-10T06:14:08;11.63;;;10.73;;
4057;SDS011;2044;48.692;9.020;2023-06-10T06:16:35;11.60;;;10.90;;
4057;SDS011;2044;48.692;9.020;2023-06-10T06:19:01;12.53;;;11.43;;
4057;SDS011;2044;48.692;9.020;2023-06-10T06:21:28;11.50;;;10.70;;
4057;SDS011;2044;48.692;9.020;2023-06-10T06:23:54;11.90;;;11.10;;
4057;SDS011;2044;48.692;9.020;2023-06-10T06:26:22;11.17;;;10.50;;
4057;SDS011;2044;48.692;9.020;2023-06-10T06:28:50;11.70;;;11.00;;
4057;SDS011;2044;48.692;9.020;2023-06-10T06:31:18;12.07;;;11.37;;
4057;SDS011;2044;48.692;9.020;2023-06-10T06:33:45;12.97;;;12.03;;
4057;SDS011;2044;48.692;9.020;2023-06-10T06:36:11;12.87;;;12.07;;
4057;SDS011;2044;48.692;9.020;2023-06-10T06:38:38;12.10;;;11.37;;
4057;SDS011;2044;48.692;9.020;2023-06-10T06:41:05;13.33;;;12.50;;
4057;SDS011;2044;48.692;9.020;2023-06-10T06:43:31;12.13;;;11.30;;
4057;SDS011;2044;48.692;9.020;2023-06-10T06:45:58;12.27;;;11.47;;
4057;SDS011;2044;48.692;9.020;2023-06-10T06:48:26;12.27;;;11.47;;
4057;SDS011;2044;48.692;9.020;2023-06-10T06:50:53;12.13;;;11.33;;
4057;SDS011;2044;48.692;9.020;2023-06-10T06:53:21;13.90;;;12.90;;
4057;SDS011;2044;48.692;9.020;2023-06-10T06:55:47;12.87;;;11.83;;
4057;SDS011;2044;48.692;9.020;2023-06-10T06:58:14;13.10;;;12.30;;
4057;SDS011;2044;48.692;9.020;2023-06-10T07:00:41;12.90;;;12.10;;
4057;SDS011;2044;48.692;9.020;2023-06-10T07:03:08;13.07;;;12.20;;
4057;SDS011;2044;48.692;9.020;2023-06-10T07:05:36;13.10;;;12.30;;
4057;SDS011;2044;48.692;9.020;2023-06-10T07:08:03;13.70;;;12.80;;
4057;SDS011;2044;48.692;9.020;2023-06-10T07:10:30;12.90;;;12.10;;
4057;SDS011;2044;48.692;9.020;2023-06-10T07:12:57;13.37;;;12.57;;
4057;SDS011;2044;48.692;9.020;2023-06-10T07:15:25;12.87;;;11.97;;
4057;SDS011;2044;48.692;9.020;2023-06-10T07:17:51;12.73;;;12.00;;
4057;SDS011;2044;48.692;9.020;2023-06-10T07:20:18;13.53;;;12.53;;
4057;SDS011;2044;48.692;9.020;2023-06-10T07:22:46;13.13;;;12.33;;
4057;SDS011;2044;48.692;9.020;2023-06-10T07:25:13;13.67;;;12.87;;
4057;SDS011;2044;48.692;9.020;2023-06-10T07:27:40;13.80;;;12.93;;
4057;SDS011;2044;48.692;9.020;2023-06-10T07:30:07;13.27;;;12.47;;
4057;SDS011;2044;48.692;9.020;2023-06-10T07:32:36;13.20;;;12.40;;
4057;SDS011;2044;48.692;9.020;2023-06-10T07:35:02;12.93;;;12.13;;
4057;SDS011;2044;48.692;9.020;2023-06-10T07:37:30;13.10;;;12.30;;
4057;SDS011;2044;48.692;9.020;2023-06-10T07:39:58;12.77;;;12.00;;
4057;SDS011;2044;48.692;9.020;2023-06-10T07:42:24;12.57;;;11.80;;
4057;SDS011;2044;48.692;9.020;2023-06-10T07:44:51;11.60;;;11.00;;
4057;SDS011;2044;48.692;9.020;2023-06-10T07:47:18;12.00;;;11.27;;
4057;SDS011;2044;48.692;9.020;2023-06-10T07:49:44;12.17;;;11.47;;
4057;SDS011;2044;48.692;9.020;2023-06-10T07:52:11;12.60;;;11.90;;
4057;SDS011;2044;48.692;9.020;2023-06-10T07:54:38;12.97;;;12.27;;
4057;SDS011;2044;48.692;9.020;2023-06-10T07:57:06;12.63;;;11.87;;
4057;SDS011;2044;48.692;9.020;2023-06-10T07:59:33;12.40;;;11.60;;
4057;SDS011;2044;48.692;9.020;2023-06-10T08:02:00;12.33;;;11.63;;
4057;SDS011;2044;48.692;9.020;2023-06-10T08:04:27;12.50;;;11.70;;
4057;SDS011;2044;48.692;9.020;2023-06-10T08:06:55;12.73;;;12.03;;
4057;SDS011;2044;48.692;9.020;2023-06-10T08:09:22;12.77;;;11.93;;
4057;SDS011;2044;48.692;9.020;2023-06-10T08:11:49;12.40;;;11.63;;
4057;SDS011;2044;48.692;9.020;2023-06-10T08:14:17;11.97;;;11.17;;
4057;SDS011;2044;48.692;9.020;2023-06-10T08:16:44;11.47;;;10.87;;
4057;SDS011;2044;48.692;9.020;2023-06-10T08:19:10;12.27;;;11.47;;
4057;SDS011;2044;48.692;9.020;2023-06-10T08:21:37;11.57;;;10.83;;
4057;SDS011;2044;48.692;9.020;2023-06-10T08:24:05;13.23;;;12.40;;
4057;SDS011;2044;48.692;9.020;2023-06-10T08:26:32;12.47;;;11.57;;
4057;SDS011;2044;48.692;9.020;2023-06-10T08:28:58;12.37;;;11.53;;
4057;SDS011;2044;48.692;9.020;2023-06-10T08:31:26;12.10;;;11.30;;
4057;SDS011;2044;48.692;9.020;2023-06-10T08:33:53;11.90;;;11.13;;
4057;SDS011;2044;48.692;9.020;2023-06-10T08:36:20;13.20;;;12.50;;
4057;SDS011;2044;48.692;9.020;2023-06-10T08:38:47;13.27;;;12.37;;
4057;SDS011;2044;48.692;9.020;2023-06-10T08:41:14;12.63;;;11.93;;
4057;SDS011;2044;48.692;9.020;2023-06-10T08:43:44;12.90;;;11.90;;
4057;SDS011;2044;48.692;9.020;2023-06-10T08:46:14;12.20;;;11.43;;
4057;SDS011;2044;48.692;9.020;2023-06-10T08:48:43;12.40;;;11.60;;
4057;SDS011;2044;48.692;9.020;2023-06-10T08:51:10;12.50;;;11.70;;
4057;SDS011;2044;48.692;9.020;2023-06-10T08:53:38;12.30;;;11.60;;
4057;SDS011;2044;48.692;9.020;2023-06-10T08:56:11;12.40;;;11.70;;
4057;SDS011;2044;48.692;9.020;2023-06-10T08:58:39;12.70;;;12.00;;
4057;SDS011;2044;48.692;9.020;2023-06-10T09:01:08;11.00;;;10.40;;
4057;SDS011;2044;48.692;9.020;2023-06-10T09:03:36;11.73;;;11.07;;
4057;SDS011;2044;48.692;9.020;2023-06-10T09:06:05;13.23;;;12.40;;
4057;SDS011;2044;48.692;9.020;2023-06-10T09:08:33;12.83;;;12.13;;
4057;SDS011;2044;48.692;9.020;2023-06-10T09:11:01;13.00;;;12.10;;
4057;SDS011;2044;48.692;9.020;2023-06-10T09:13:28;12.70;;;11.90;;
4057;SDS011;2044;48.692;9.020;2023-06-10T09:15:55;12.77;;;12.07;;
4057;SDS011;2044;48.692;9.020;2023-06-10T09:18:25;13.00;;;12.20;;
4057;SDS011;2044;48.692;9.020;2023-06-10T09:20:52;13.27;;;12.43;;
4057;SDS011;2044;48.692;9.020;2023-06-10T09:23:20;13.13;;;12.40;;
4057;SDS011;2044;48.692;9.020;2023-06-10T09:25:51;11.67;;;11.07;;
4057;SDS011;2044;48.692;9.020;2023-06-10T09:28:22;11.83;;;11.13;;
4057;SDS011;2044;48.692;9.020;2023-06-10T09:30:49;11.60;;;10.90;;
4057;SDS011;2044;48.692;9.020;2023-06-10T09:33:27;12.93;;;12.20;;
4057;SDS011;2044;48.692;9.020;2023-06-10T09:35:53;13.33;;;12.47;;
4057;SDS011;2044;48.692;9.020;2023-06-10T09:38:23;13.70;;;12.87;;
4057;SDS011;2044;48.692;9.020;2023-06-10T09:40:55;13.17;;;12.37;;
4057;SDS011;2044;48.692;9.020;2023-06-10T09:43:22;12.30;;;11.60;;
4057;SDS011;2044;48.692;9.020;2023-06-10T09:45:49;13.10;;;12.30;;
4057;SDS011;2044;48.692;9.020;2023-06-10T09:48:18;13.00;;;12.30;;
4057;SDS011;2044;48.692;9.020;2023-06-10T09:50:45;13.40;;;12.60;;
4057;SDS011;2044;48.692;9.020;2023-06-10T09:53:12;13.13;;;12.33;;
4057;SDS011;2044;48.692;9.020;2023-06-10T09:55:41;12.87;;;12.07;;
4057;SDS011;2044;48.692;9.020;2023-06-10T09:58:08;13.43;;;12.53;;
4057;SDS011;2044;48.692;9.020;2023-06-10T10:00:34;13.00;;;12.20;;
4057;SDS011;2044;48.692;9.020;2023-06-10T10:03:02;12.90;;;12.10;;
4057;SDS011;2044;48.692;9.020;2023-06-10T10:05:29;13.33;;;12.20;;
4057;SDS011;2044;48.692;9.020;2023-06-10T10:07:55;13.00;;;12.20;;
4057;SDS011;2044;48.692;9.020;2023-06-10T10:10:22;13.47;;;12.50;;
4057;SDS011;2044;48.692;9.020;2023-06-10T10:12:52;12.80;;;12.10;;
4057;SDS011;2044;48.692;9.020;2023-06-10T10:15:22;12.37;;;11.67;;
4057;SDS011;2044;48.692;9.020;2023-06-10T10:17:52;12.30;;;11.60;;
4057;SDS011;2044;48.692;9.020;2023-06-10T10:20:22;12.57;;;11.97;;
4057;SDS011;2044;48.692;9.020;2023-06-10T10:22:53;12.33;;;11.63;;
4057;SDS011;2044;48.692;9.020;2023-06-10T10:25:23;12.40;;;11.60;;
4057;SDS011;2044;48.692;9.020;2023-06-10T10:27:56;13.07;;;12.03;;
4057;SDS011;2044;48.692;9.020;2023-06-10T10:30:25;11.87;;;11.17;;
4057;SDS011;2044;48.692;9.020;2023-06-10T10:32:55;12.50;;;11.80;;
4057;SDS011;2044;48.692;9.020;2023-06-10T10:35:25;12.10;;;11.30;;
4057;SDS011;2044;48.692;9.020;2023-06-10T10:37:52;10.90;;;10.30;;
4057;SDS011;2044;48.692;9.020;2023-06-10T10:40:20;11.97;;;11.27;;
4057;SDS011;2044;48.692;9.020;2023-06-10T10:42:48;12.00;;;11.20;;
4057;SDS011;2044;48.692;9.020;2023-06-10T10:45:17;11.97;;;11.27;;
4057;SDS011;2044;48.692;9.020;2023-06-10T10:47:45;12.37;;;11.57;;
4057;SDS011;2044;48.692;9.020;2023-06-10T10:50:13;12.37;;;11.47;;
4057;SDS011;2044;48.692;9.020;2023-06-10T10:52:51;12.10;;;11.40;;
4057;SDS011;2044;48.692;9.020;2023-06-10T10:55:19;11.60;;;10.80;;
4057;SDS011;2044;48.692;9.020;2023-06-10T10:57:53;12.30;;;11.50;;
4057;SDS011;2044;48.692;9.020;2023-06-10T11:00:25;11.27;;;10.37;;
4057;SDS011;2044;48.692;9.020;2023-06-10T11:02:56;11.97;;;11.20;;
4057;SDS011;2044;48.692;9.020;2023-06-10T11:05:31;11.50;;;10.90;;
4057;SDS011;2044;48.692;9.020;2023-06-10T11:08:02;11.40;;;10.70;;
4057;SDS011;2044;48.692;9.020;2023-06-10T11:10:29;11.10;;;10.40;;
4057;SDS011;2044;48.692;9.020;2023-06-10T11:12:57;11.77;;;11.00;;
4057;SDS011;2044;48.692;9.020;2023-06-10T11:15:26;11.03;;;10.43;;
4057;SDS011;2044;48.692;9.020;2023-06-10T11:20:53;10.60;;;10.10;;
4057;SDS011;2044;48.692;9.020;2023-06-10T11:23:25;11.53;;;10.83;;
4057;SDS011;2044;48.692;9.020;2023-06-10T11:26:15;11.20;;;10.40;;
4057;SDS011;2044;48.692;9.020;2023-06-10T11:31:32;11.10;;;10.40;;
4057;SDS011;2044;48.692;9.020;2023-06-10T11:34:00;11.30;;;10.50;;
4057;SDS011;2044;48.692;9.020;2023-06-10T11:36:29;11.60;;;10.90;;
4057;SDS011;2044;48.692;9.020;2023-06-10T11:38:58;10.60;;;9.90;;
4057;SDS011;2044;48.692;9.020;2023-06-10T11:41:27;11.20;;;10.50;;
4057;SDS011;2044;48.692;9.020;2023-06-10T11:43:56;11.80;;;11.00;;
4057;SDS011;2044;48.692;9.020;2023-06-10T11:46:23;12.03;;;11.03;;
4057;SDS011;2044;48.692;9.020;2023-06-10T11:48:53;11.70;;;10.70;;
4057;SDS011;2044;48.692;9.020;2023-06-10T11:51:21;12.20;;;10.93;;
4057;SDS011;2044;48.692;9.020;2023-06-10T11:53:48;11.77;;;10.97;;
4057;SDS011;2044;48.692;9.020;2023-06-10T11:56:19;11.27;;;10.57;;
4057;SDS011;2044;48.692;9.020;2023-06-10T11:58:46;12.47;;;11.77;;
4057;SDS011;2044;48.692;9.020;2023-06-10T12:01:19;11.60;;;10.90;;
4057;SDS011;2044;48.692;9.020;2023-06-10T12:03:47;11.57;;;10.93;;
4057;SDS011;2044;48.692;9.020;2023-06-10T12:06:24;11.10;;;10.50;;
4057;SDS011;2044;48.692;9.020;2023-06-10T12:08:51;11.23;;;10.63;;
4057;SDS011;2044;48.692;9.020;2023-06-10T12:11:18;13.00;;;11.87;;
4057;SDS011;2044;48.692;9.020;2023-06-10T12:13:45;11.93;;;11.23;;
4057;SDS011;2044;48.692;9.020;2023-06-10T12:16:14;10.83;;;10.23;;
4057;SDS011;2044;48.692;9.020;2023-06-10T12:18:42;11.93;;;11.23;;
4057;SDS011;2044;48.692;9.020;2023-06-10T12:21:18;10.63;;;9.93;;
4057;SDS011;2044;48.692;9.020;2023-06-10T12:24:02;10.30;;;9.70;;
4057;SDS011;2044;48.692;9.020;2023-06-10T12:26:34;11.40;;;10.80;;
4057;SDS011;2044;48.692;9.020;2023-06-10T12:29:18;12.40;;;11.57;;
4057;SDS011;2044;48.692;9.020;2023-06-10T12:31:57;14.60;;;13.77;;
4057;SDS011;2044;48.692;9.020;2023-06-10T12:34:32;13.90;;;13.20;;
4057;SDS011;2044;48.692;9.020;2023-06-10T12:37:02;15.07;;;14.20;;
4057;SDS011;2044;48.692;9.020;2023-06-10T12:39:31;14.83;;;14.03;;
4057;SDS011;2044;48.692;9.020;2023-06-10T12:41:58;14.60;;;13.90;;
4057;SDS011;2044;48.692;9.020;2023-06-10T12:44:29;15.53;;;14.73;;
4057;SDS011;2044;48.692;9.020;2023-06-10T12:47:00;15.10;;;14.30;;
4057;SDS011;2044;48.692;9.020;2023-06-10T12:49:32;15.60;;;14.80;;
4057;SDS011;2044;48.692;9.020;2023-06-10T12:52:01;16.07;;;14.97;;
4057;SDS011;2044;48.692;9.020;2023-06-10T12:54:28;16.00;;;14.80;;
4057;SDS011;2044;48.692;9.020;2023-06-10T12:56:55;15.10;;;14.13;;
4057;SDS011;2044;48.692;9.020;2023-06-10T12:59:22;16.63;;;15.63;;
4057;SDS011;2044;48.692;9.020;2023-06-10T13:01:51;15.23;;;14.33;;
4057;SDS011;2044;48.692;9.020;2023-06-10T13:04:18;14.70;;;13.90;;
4057;SDS011;2044;48.692;9.020;2023-06-10T13:06:46;15.70;;;14.90;;
4057;SDS011;2044;48.692;9.020;2023-06-10T13:09:15;13.70;;;13.00;;
4057;SDS011;2044;48.692;9.020;2023-06-10T13:11:42;14.00;;;13.30;;
4057;SDS011;2044;48.692;9.020;2023-06-10T13:14:09;14.00;;;13.20;;
4057;SDS011;2044;48.692;9.020;2023-06-10T13:16:36;15.07;;;14.27;;
4057;SDS011;2044;48.692;9.020;2023-06-10T13:19:04;15.30;;;14.40;;
4057;SDS011;2044;48.692;9.020;2023-06-10T13:21:31;14.90;;;14.00;;
4057;SDS011;2044;48.692;9.020;2023-06-10T13:23:58;16.23;;;15.23;;
4057;SDS011;2044;48.692;9.020;2023-06-10T13:26:27;15.07;;;14.27;;
4057;SDS011;2044;48.692;9.020;2023-06-10T13:28:53;15.90;;;14.90;;
4057;SDS011;2044;48.692;9.020;2023-06-10T13:31:20;15.43;;;14.53;;
4057;SDS011;2044;48.692;9.020;2023-06-10T13:33:47;15.60;;;14.73;;
4057;SDS011;2044;48.692;9.020;2023-06-10T13:36:13;15.87;;;15.00;;
4057;SDS011;2044;48.692;9.020;2023-06-10T13:38:40;14.90;;;14.10;;
4057;SDS011;2044;48.692;9.020;2023-06-10T13:41:07;14.57;;;13.63;;
4057;SDS011;2044;48.692;9.020;2023-06-10T13:43:36;13.33;;;12.63;;
4057;SDS011;2044;48.692;9.020;2023-06-10T13:46:03;14.93;;;14.13;;
4057;SDS011;2044;48.692;9.020;2023-06-10T13:48:29;14.37;;;13.67;;
4057;SDS011;2044;48.692;9.020;2023-06-10T13:50:57;15.40;;;14.60;;
4057;SDS011;2044;48.692;9.020;2023-06-10T13:53:24;14.10;;;13.40;;
4057;SDS011;2044;48.692;9.020;2023-06-10T13:55:51;14.13;;;13.33;;
4057;SDS011;2044;48.692;9.020;2023-06-10T13:58:18;15.03;;;14.23;;
4057;SDS011;2044;48.692;9.020;2023-06-10T14:00:46;14.87;;;14.07;;
4057;SDS011;2044;48.692;9.020;2023-06-10T14:03:13;14.50;;;13.70;;
4057;SDS011;2044;48.692;9.020;2023-06-10T14:05:40;15.87;;;14.93;;
4057;SDS011;2044;48.692;9.020;2023-06-10T14:08:06;14.30;;;13.40;;
4057;SDS011;2044;48.692;9.020;2023-06-10T14:10:33;13.97;;;13.17;;
4057;SDS011;2044;48.692;9.020;2023-06-10T14:13:00;14.80;;;13.80;;
4057;SDS011;2044;48.692;9.020;2023-06-10T14:15:27;15.00;;;14.20;;
4057;SDS011;2044;48.692;9.020;2023-06-10T14:17:57;15.27;;;14.37;;
4057;SDS011;2044;48.692;9.020;2023-06-10T14:20:23;14.87;;;14.17;;
4057;SDS011;2044;48.692;9.020;2023-06-10T14:22:51;15.00;;;14.10;;
4057;SDS011;2044;48.692;9.020;2023-06-10T14:25:18;15.80;;;14.90;;
4057;SDS011;2044;48.692;9.020;2023-06-10T14:27:45;16.23;;;15.30;;
4057;SDS011;2044;48.692;9.020;2023-06-10T14:30:12;15.10;;;14.30;;
4057;SDS011;2044;48.692;9.020;2023-06-10T14:32:39;15.23;;;14.23;;
4057;SDS011;2044;48.692;9.020;2023-06-10T14:35:07;15.20;;;14.20;;
4057;SDS011;2044;48.692;9.020;2023-06-10T14:37:35;13.00;;;12.27;;
4057;SDS011;2044;48.692;9.020;2023-06-10T14:40:03;14.23;;;13.43;;
4057;SDS011;2044;48.692;9.020;2023-06-10T14:42:31;14.00;;;13.20;;
4057;SDS011;2044;48.692;9.020;2023-06-10T14:44:58;13.47;;;12.77;;
4057;SDS011;2044;48.692;9.020;2023-06-10T14:47:24;14.03;;;13.23;;
4057;SDS011;2044;48.692;9.020;2023-06-10T14:49:51;13.23;;;12.50;;
4057;SDS011;2044;48.692;9.020;2023-06-10T14:52:19;13.40;;;12.70;;
4057;SDS011;2044;48.692;9.020;2023-06-10T14:54:46;13.50;;;12.80;;
4057;SDS011;2044;48.692;9.020;2023-06-10T14:57:13;13.10;;;12.50;;
4057;SDS011;2044;48.692;9.020;2023-06-10T14:59:40;11.13;;;10.53;;